logo
Search for airport 
image banner adimage banner adimage banner ad
image banner ad

EHS044 - Nijmegen

Located in , Netherlands

ICAO - , IATA -

Data provided by Airmate  

General information

Coordinates: N51°51'1" E5°49'40"
Elevation is 28 feet MSL.
 
View others Airports in Gelderland

Operational data

Special qualification required
Current time UTC:
Current local time:
Weather at : EHVK - Volkel ( 23 km )
METAR: EHVK 150855Z AUTO 22017KT 170V270 9999 SCT024 BKN028 BKN034 11/05 Q1008 WHT NOSIG
TAF: TAF EHVK 150055Z 1501/1513 22007KT CAVOK BECMG 1507/1509 23016G30KT TEMPO 1510/1513 25017G40KT 4000 RA SHRAGS SCT018 FEW020CB BKN025 PROB30 TEMPO 1512/1513 26022G45KT 2000 TSRAGS FEW010 SCT015CB BKN018
View NOTAMs / SUP AIP / TFR affecting this airport [VIEW]
Communications frequencies: [VIEW]

Runways:

Airport contact information

Address: Netherlands

Satellite view of EHS044